Time;durP1;ratioP1;P1;durP2;ratioP2;P2;SDS_P1;SDS_P2;PMS_P1;PMS_P2;Temp;Humidity;BMP_temperature;BMP_pressure;BME280_temperature;BME280_humidity;BME280_pressure;Samples;Min_cycle;Max_cycle;Signal;HPM_P1;HPM_P2
2023/06/29 00:02:25;;;;;;;3.50;2.88;;;;;;;19.38;46.14;99852.31;10311029;28;20249;-41
2023/06/29 00:07:27;;;;;;;3.20;2.60;;;;;;;19.45;46.26;99824.19;10308163;28;20321;-40
2023/06/29 00:12:29;;;;;;;2.45;2.20;;;;;;;18.42;47.38;99887.03;10308238;28;20257;-39
2023/06/29 00:17:31;;;;;;;2.55;2.35;;;;;;;19.17;46.97;99798.72;10311022;28;20450;-38
2023/06/29 00:22:33;;;;;;;2.97;2.72;;;;;;;18.58;47.30;99870.09;10304727;28;20432;-42
2023/06/29 00:27:35;;;;;;;3.07;2.40;;;;;;;18.65;47.01;99843.69;10303430;28;20210;-40
2023/06/29 00:32:37;;;;;;;6.85;2.90;;;;;;;19.38;46.00;99816.19;10302463;28;20218;-41
2023/06/29 00:37:40;;;;;;;3.30;2.43;;;;;;;20.30;44.96;99806.94;10307283;28;20225;-41
2023/06/29 00:42:41;;;;;;;4.57;2.55;;;;;;;20.28;44.54;99882.47;10302603;28;20230;-42
2023/06/29 00:47:44;;;;;;;6.10;2.58;;;;;;;21.37;42.43;99895.69;10306432;28;20691;-39
2023/06/29 00:52:46;;;;;;;3.03;2.72;;;;;;;22.44;40.83;99882.31;10313464;28;20230;-41
2023/06/29 00:57:47;;;;;;;4.22;2.72;;;;;;;21.53;41.91;99932.91;10315829;28;20652;-38
2023/06/29 01:02:49;;;;;;;2.97;2.38;;;;;;;21.62;42.43;99902.53;10307441;28;20246;-41
2023/06/29 01:08:00;;;;;;;2.70;2.30;;;;;;;21.73;42.10;99887.94;10315447;28;20206;-40
2023/06/29 01:13:04;;;;;;;4.45;2.70;;;;;;;20.73;43.20;99928.78;10313597;28;20231;-39
2023/06/29 01:18:07;;;;;;;2.75;2.40;;;;;;;21.33;42.13;99900.81;10328366;28;20631;-37
2023/06/29 01:23:14;;;;;;;3.80;2.30;;;;;;;21.52;42.24;99868.66;10313644;28;20324;-39
2023/06/29 01:28:16;;;;;;;2.70;2.00;;;;;;;21.85;41.73;99852.38;10311097;28;20210;-43
2023/06/29 01:33:21;;;;;;;2.88;2.67;;;;;;;21.22;42.11;99915.34;10310956;28;20762;-40
2023/06/29 01:38:41;;;;;;;3.65;2.80;;;;;;;19.47;45.04;99946.88;10308066;28;20225;-40
2023/06/29 01:43:44;;;;;;;3.58;2.38;;;;;;;20.16;43.69;99917.00;10310812;28;20239;-41
2023/06/29 01:48:46;;;;;;;4.10;2.40;;;;;;;19.38;45.04;99909.28;10314754;28;20226;-40
2023/06/29 01:53:50;;;;;;;3.35;2.70;;;;;;;18.62;46.62;99892.13;10309528;28;20202;-38
2023/06/29 01:58:51;;;;;;;3.42;2.88;;;;;;;18.26;47.38;99843.31;10313060;28;20652;-39
2023/06/29 02:03:53;;;;;;;4.22;2.85;;;;;;;19.61;45.23;99771.88;10313692;28;20245;-38
2023/06/29 02:08:55;;;;;;;3.15;2.70;;;;;;;18.59;46.84;99857.38;10311063;28;20602;-36
2023/06/29 02:13:57;;;;;;;3.90;2.70;;;;;;;17.68;48.54;99844.84;10314561;28;20253;-39
2023/06/29 02:18:59;;;;;;;7.67;3.43;;;;;;;17.30;49.56;99789.16;10312609;28;20248;-41
2023/06/29 02:24:01;;;;;;;4.40;3.10;;;;;;;17.63;48.12;99804.13;10314265;28;20233;-39
2023/06/29 02:29:02;;;;;;;3.77;3.10;;;;;;;18.05;47.80;99758.06;10311164;28;20226;-39
2023/06/29 02:34:04;;;;;;;3.47;3.17;;;;;;;18.15;47.96;99756.66;10303814;28;20214;-41
2023/06/29 02:39:07;;;;;;;5.63;3.73;;;;;;;18.72;46.85;99737.06;10312427;28;20226;-37
2023/06/29 02:44:09;;;;;;;5.17;3.63;;;;;;;18.99;45.98;99742.75;10306444;28;20466;-41
2023/06/29 02:49:11;;;;;;;4.17;3.40;;;;;;;18.57;46.92;99805.31;10314165;28;20237;-40
2023/06/29 02:54:13;;;;;;;3.30;3.00;;;;;;;19.78;44.74;99779.22;10305286;28;20288;-39
2023/06/29 02:59:15;;;;;;;4.13;3.20;;;;;;;19.95;44.41;99777.31;10307650;28;20238;-40
2023/06/29 03:04:17;;;;;;;3.63;3.33;;;;;;;19.58;45.23;99777.78;10307550;28;20233;-40
2023/06/29 03:09:19;;;;;;;6.73;3.67;;;;;;;18.75;45.99;99832.25;10308312;28;20226;-37
2023/06/29 03:14:21;;;;;;;5.00;3.57;;;;;;;19.32;45.16;99817.19;10308067;28;20296;-38
2023/06/29 03:19:23;;;;;;;5.53;3.50;;;;;;;19.27;45.58;99828.75;10308979;28;20233;-37
2023/06/29 03:24:25;;;;;;;4.80;3.40;;;;;;;20.01;44.26;99806.19;10307288;28;20883;-40
2023/06/29 03:29:27;;;;;;;3.33;3.03;;;;;;;20.62;43.42;99816.38;10312321;28;20234;-41
2023/06/29 03:34:29;;;;;;;4.97;3.00;;;;;;;21.05;42.48;99809.31;10309871;28;21059;-41
2023/06/29 03:39:30;;;;;;;4.53;3.30;;;;;;;20.78;43.11;99845.41;10307333;28;20226;-40
2023/06/29 03:44:33;;;;;;;3.47;3.10;;;;;;;20.86;42.84;99828.66;10307356;28;20266;-40
2023/06/29 03:49:35;;;;;;;3.15;2.67;;;;;;;21.36;41.89;99850.53;10301407;28;20230;-39
2023/06/29 03:54:37;;;;;;;3.70;3.22;;;;;;;21.27;41.97;99854.72;10301964;28;20222;-38
2023/06/29 03:59:38;;;;;;;4.80;3.15;;;;;;;21.13;42.61;99829.81;10307907;28;20238;-38
2023/06/29 04:04:40;;;;;;;6.33;3.43;;;;;;;20.27;43.31;99893.56;10305515;28;20289;-42
2023/06/29 04:09:42;;;;;;;3.47;3.00;;;;;;;19.20;45.13;99895.88;10300428;28;20320;-40
2023/06/29 04:14:45;;;;;;;4.53;3.33;;;;;;;21.06;42.94;99802.81;10307040;28;20709;-41
2023/06/29 04:19:47;;;;;;;7.07;3.73;;;;;;;19.82;43.69;99878.09;10315317;28;20378;-40
2023/06/29 04:24:50;;;;;;;4.83;3.93;;;;;;;21.23;41.84;99879.72;10318498;28;20280;-37
2023/06/29 04:29:52;;;;;;;3.15;2.88;;;;;;;19.72;44.45;99870.56;10324778;28;20284;-40
2023/06/29 04:34:54;;;;;;;4.15;3.50;;;;;;;19.24;45.51;99837.38;10323282;28;20214;-41
2023/06/29 04:39:55;;;;;;;3.43;3.10;;;;;;;20.22;43.47;99834.53;10320653;28;20229;-40
2023/06/29 04:44:59;;;;;;;3.53;3.00;;;;;;;19.74;44.77;99858.41;10314247;28;20225;-40
2023/06/29 04:50:01;;;;;;;4.53;3.77;;;;;;;20.22;44.21;99831.81;10323576;28;20834;-39
2023/06/29 04:55:04;;;;;;;3.70;3.40;;;;;;;19.69;45.41;99833.91;10318577;28;20257;-41
2023/06/29 05:05:22;;;;;;;4.28;3.88;;;;;;;17.49;50.06;99727.72;10437487;28;20831;-67
2023/06/29 05:10:24;;;;;;;5.57;3.72;;;;;;;16.88;51.70;99717.97;10388125;28;20209;-67
2023/06/29 05:15:26;;;;;;;4.80;4.30;;;;;;;18.17;50.01;99646.22;10393737;28;20265;-67
2023/06/29 05:20:27;;;;;;;4.82;3.42;;;;;;;19.97;46.06;99739.84;10390259;28;20240;-68
2023/06/29 05:25:29;;;;;;;5.43;3.72;;;;;;;19.32;47.29;99773.78;10388242;28;20303;-68
2023/06/29 05:30:31;;;;;;;3.72;2.88;;;;;;;20.91;44.98;99724.56;10389065;28;20275;-67
2023/06/29 05:35:35;;;;;;;3.70;2.80;;;;;;;20.27;45.74;99782.97;10384215;28;20264;-65
2023/06/29 05:40:37;;;;;;;6.28;3.30;;;;;;;20.09;46.08;99772.34;10395250;28;20208;-65
2023/06/29 05:45:39;;;;;;;4.10;2.90;;;;;;;21.32;44.05;99735.88;10388160;28;20719;-65
2023/06/29 05:50:40;;;;;;;4.15;3.17;;;;;;;18.81;47.65;99853.00;10388663;28;20926;-65
2023/06/29 05:55:43;;;;;;;4.50;3.38;;;;;;;19.26;47.14;99837.13;10383718;28;20237;-68
2023/06/29 06:00:45;;;;;;;5.80;3.10;;;;;;;21.58;44.29;99750.56;10389234;28;20291;-65
2023/06/29 06:05:46;;;;;;;4.75;2.90;;;;;;;19.42;46.82;99841.78;10381434;28;20279;-65
2023/06/29 06:10:48;;;;;;;4.47;3.05;;;;;;;21.09;45.29;99723.41;10379446;28;20201;-65
2023/06/29 06:15:50;;;;;;;5.50;3.22;;;;;;;20.37;46.17;99774.16;10359026;28;20237;-69
2023/06/29 06:20:52;;;;;;;6.82;3.05;;;;;;;19.53;47.96;99756.78;10356806;28;20247;-66
2023/06/29 06:25:53;;;;;;;5.40;3.60;;;;;;;20.48;46.00;99766.97;10343071;28;20242;-66
2023/06/29 06:30:55;;;;;;;3.28;2.60;;;;;;;19.89;46.09;99817.16;10351259;28;20665;-66
2023/06/29 06:35:58;;;;;;;2.80;2.60;;;;;;;20.40;46.08;99745.69;10349527;28;20240;-66
2023/06/29 06:41:00;;;;;;;4.05;2.83;;;;;;;20.04;46.47;99753.28;10351200;28;20230;-66
2023/06/29 06:46:02;;;;;;;3.33;2.70;;;;;;;19.80;47.07;99791.47;10346272;28;20222;-66
2023/06/29 06:51:04;;;;;;;3.53;2.65;;;;;;;21.42;44.24;99762.38;10347639;28;20291;-66
2023/06/29 06:56:06;;;;;;;3.60;2.60;;;;;;;21.11;45.14;99758.53;10349245;28;20236;-67
2023/06/29 07:01:08;;;;;;;3.47;2.72;;;;;;;20.72;45.63;99781.16;10357951;28;20457;-65
2023/06/29 07:06:10;;;;;;;4.35;2.80;;;;;;;21.27;44.71;99786.72;10360259;28;20244;-65
2023/06/29 07:11:11;;;;;;;4.85;2.40;;;;;;;23.05;42.17;99772.72;10353383;28;20211;-65
2023/06/29 07:16:13;;;;;;;2.92;2.63;;;;;;;20.80;45.06;99834.28;10347749;28;20257;-65
2023/06/29 07:21:15;;;;;;;3.75;2.65;;;;;;;22.37;43.19;99810.00;10357855;28;20260;-66
2023/06/29 07:26:18;;;;;;;4.65;2.42;;;;;;;23.77;41.34;99793.91;10349046;28;20952;-65
2023/06/29 07:31:27;;;;;;;3.40;2.38;;;;;;;22.12;42.80;99834.09;10354603;28;20260;-65
2023/06/29 07:36:29;;;;;;;4.03;2.78;;;;;;;22.85;42.29;99781.66;10349334;28;20501;-65
2023/06/29 07:41:31;;;;;;;4.10;2.28;;;;;;;23.27;41.54;99801.75;10355064;28;20248;-65
2023/06/29 07:46:33;;;;;;;4.15;2.22;;;;;;;22.81;42.84;99804.31;10351635;28;20697;-65
2023/06/29 07:51:35;;;;;;;4.53;2.80;;;;;;;21.34;45.10;99798.19;10351614;28;20284;-65
2023/06/29 07:56:38;;;;;;;4.10;2.58;;;;;;;23.02;41.51;99795.09;10354845;28;20329;-65
2023/06/29 08:01:46;;;;;;;4.88;2.70;;;;;;;23.28;41.53;99797.09;10364161;28;20770;-65
2023/06/29 08:06:49;;;;;;;3.58;2.55;;;;;;;23.78;41.18;99752.66;10353000;28;20229;-65
2023/06/29 08:11:52;;;;;;;3.28;2.67;;;;;;;22.77;42.39;99795.00;10352009;28;20206;-65
2023/06/29 08:16:54;;;;;;;3.78;2.90;;;;;;;23.86;40.87;99743.09;10346453;28;20241;-66
2023/06/29 08:21:56;;;;;;;2.33;2.17;;;;;;;24.96;39.47;99757.03;10345790;28;20266;-66
2023/06/29 08:26:58;;;;;;;4.03;2.75;;;;;;;23.65;40.95;99790.63;10345602;28;20312;-66
2023/06/29 08:32:00;;;;;;;2.88;2.45;;;;;;;23.39;41.89;99812.41;10348363;28;20217;-66
2023/06/29 08:37:02;;;;;;;2.88;2.67;;;;;;;23.41;41.20;99819.22;10346882;28;20325;-65
2023/06/29 08:42:04;;;;;;;3.53;2.28;;;;;;;25.06;39.62;99770.66;10342831;28;20312;-66
2023/06/29 08:47:11;;;;;;;2.80;2.50;;;;;;;24.57;39.54;99763.19;10348168;28;20229;-65
2023/06/29 08:52:17;;;;;;;5.50;2.47;;;;;;;25.47;38.47;99751.25;10349369;28;20297;-66
2023/06/29 08:57:19;;;;;;;2.85;2.20;;;;;;;25.04;39.16;99731.78;10351546;28;20276;-66
2023/06/29 09:02:21;;;;;;;3.47;2.35;;;;;;;24.09;39.42;99769.03;10349530;28;20273;-66
2023/06/29 09:07:23;;;;;;;3.78;2.22;;;;;;;24.55;38.61;99759.91;10354532;28;20201;-66
2023/06/29 09:12:27;;;;;;;5.10;2.35;;;;;;;25.23;37.35;99758.53;10345793;28;20214;-65
2023/06/29 09:17:33;;;;;;;3.35;2.22;;;;;;;25.10;38.49;99782.69;10350784;28;20220;-66
2023/06/29 09:22:39;;;;;;;2.88;1.90;;;;;;;24.26;39.41;99774.22;10351876;28;20651;-65
2023/06/29 09:27:40;;;;;;;3.75;2.78;;;;;;;23.79;39.63;99767.16;10349070;28;20276;-66
2023/06/29 09:32:42;;;;;;;3.72;2.42;;;;;;;24.70;39.23;99750.88;10345737;28;20261;-66
2023/06/29 09:37:44;;;;;;;3.45;2.42;;;;;;;24.67;39.32;99693.94;10347741;28;20210;-65
2023/06/29 09:42:46;;;;;;;5.07;2.40;;;;;;;25.71;37.61;99717.63;10344167;28;20245;-66
2023/06/29 09:47:51;;;;;;;3.35;2.30;;;;;;;25.33;38.70;99676.31;10345477;28;20244;-66
2023/06/29 09:52:56;;;;;;;4.05;2.20;;;;;;;23.50;39.75;99745.81;10351773;28;20229;-65
2023/06/29 09:58:00;;;;;;;3.33;2.22;;;;;;;25.48;37.71;99700.81;10365321;28;20680;-65
2023/06/29 10:03:02;;;;;;;2.00;1.80;;;;;;;26.32;36.73;99699.75;10363849;28;20246;-65
2023/06/29 10:08:08;;;;;;;3.10;2.28;;;;;;;25.75;37.59;99698.72;10368708;28;20264;-66
2023/06/29 10:13:10;;;;;;;3.35;2.20;;;;;;;26.36;37.50;99695.31;10363280;28;20221;-66
2023/06/29 10:18:16;;;;;;;2.78;2.20;;;;;;;26.56;36.99;99679.72;10358009;28;20268;-65
2023/06/29 10:23:19;;;;;;;3.28;2.45;;;;;;;25.05;38.17;99727.97;10364105;28;20234;-66
2023/06/29 10:28:23;;;;;;;3.88;2.30;;;;;;;26.51;37.17;99688.81;10361941;28;20698;-66
2023/06/29 10:33:26;;;;;;;2.95;2.10;;;;;;;25.14;37.98;99716.41;10355272;28;20634;-67
2023/06/29 10:38:34;;;;;;;2.55;2.17;;;;;;;26.14;37.25;99689.53;10362157;28;20217;-67
2023/06/29 10:44:04;;;;;;;3.13;2.38;;;;;;;25.78;36.77;99734.56;10342822;28;20408;-67
2023/06/29 10:49:08;;;;;;;2.60;2.03;;;;;;;25.58;37.52;99672.53;10347714;28;20212;-67
2023/06/29 10:54:10;;;;;;;2.97;2.10;;;;;;;26.11;36.98;99670.91;10344117;28;20260;-67
2023/06/29 10:59:13;;;;;;;3.78;2.10;;;;;;;24.51;38.51;99706.84;10351740;28;20218;-69
2023/06/29 11:06:20;;;;;;;4.10;2.05;;;;;;;23.16;41.34;99598.13;10517343;27;2023709;-67
2023/06/29 11:11:34;;;;;;;2.33;1.80;;;;;;;24.61;39.29;99626.69;10553030;28;20673;-66
2023/06/29 11:16:39;;;;;;;2.55;2.17;;;;;;;23.25;41.24;99660.06;10553898;28;20234;-67
2023/06/29 11:21:41;;;;;;;2.97;2.03;;;;;;;24.84;39.19;99595.09;10550546;28;20240;-67
2023/06/29 11:26:44;;;;;;;2.00;1.90;;;;;;;22.87;41.20;99651.25;10549435;28;20231;-66
2023/06/29 11:31:46;;;;;;;3.13;2.28;;;;;;;23.56;39.43;99602.72;10552385;28;20198;-68
2023/06/29 11:36:48;;;;;;;3.65;1.98;;;;;;;23.25;40.34;99632.78;10553815;28;20580;-66
2023/06/29 11:42:09;;;;;;;3.08;2.28;;;;;;;25.32;37.67;99646.47;10546945;28;20227;-68
2023/06/29 11:47:15;;;;;;;5.70;2.33;;;;;;;24.62;38.08;99672.09;10544659;28;20723;-67
2023/06/29 11:52:42;;;;;;;2.92;2.10;;;;;;;26.21;37.24;99613.22;10553598;28;20716;-69
2023/06/29 11:57:50;;;;;;;3.15;1.85;;;;;;;23.94;37.27;99666.03;10552383;28;20596;-67
2023/06/29 12:02:52;;;;;;;2.03;1.70;;;;;;;23.50;37.85;99625.66;10544610;28;20296;-67
2023/06/29 12:07:54;;;;;;;2.10;1.83;;;;;;;24.23;37.42;99673.63;10549287;28;20242;-66
2023/06/29 12:12:58;;;;;;;4.55;2.20;;;;;;;24.57;36.94;99642.84;10546288;28;20223;-66
2023/06/29 12:18:30;;;;;;;3.67;2.40;;;;;;;24.48;37.53;99652.75;10526196;28;20207;-65
2023/06/29 12:23:37;;;;;;;2.72;2.00;;;;;;;26.26;35.72;99601.41;10516093;28;20329;-67
2023/06/29 12:28:39;;;;;;;5.97;2.03;;;;;;;25.62;35.27;99675.50;10520200;28;20631;-65
2023/06/29 12:33:40;;;;;;;2.72;2.15;;;;;;;26.75;35.09;99636.69;10515794;28;20594;-65
2023/06/29 12:38:42;;;;;;;4.30;2.22;;;;;;;26.38;35.79;99620.97;10525877;28;20230;-65
2023/06/29 12:43:44;;;;;;;2.83;2.30;;;;;;;25.98;36.02;99642.31;10514188;28;20322;-65
2023/06/29 12:48:46;;;;;;;6.82;2.00;;;;;;;26.69;34.93;99623.28;10526126;28;20670;-65
2023/06/29 12:53:48;;;;;;;4.18;2.13;;;;;;;26.54;35.72;99586.72;10525669;28;20258;-65
2023/06/29 12:58:50;;;;;;;4.18;1.90;;;;;;;25.07;36.62;99605.31;10512356;28;20222;-65
2023/06/29 13:03:51;;;;;;;2.35;1.80;;;;;;;26.14;34.71;99623.72;10511535;28;21227;-66
2023/06/29 13:08:55;;;;;;;2.40;2.08;;;;;;;24.92;36.12;99616.41;10521239;28;20718;-65
2023/06/29 13:14:01;;;;;;;2.47;1.98;;;;;;;26.70;34.35;99570.84;10521644;28;20226;-65
2023/06/29 13:19:03;;;;;;;3.45;2.30;;;;;;;27.09;33.84;99604.56;10522617;28;20238;-65
2023/06/29 13:24:04;;;;;;;2.35;2.08;;;;;;;27.56;33.19;99579.88;10520468;28;20291;-65
2023/06/29 13:29:06;;;;;;;3.92;2.33;;;;;;;27.79;33.77;99586.31;10507441;28;20272;-66
2023/06/29 13:34:08;;;;;;;4.22;2.13;;;;;;;26.09;34.69;99605.41;10517226;28;20276;-66
2023/06/29 13:39:10;;;;;;;3.47;2.53;;;;;;;25.77;35.79;99581.41;10514977;28;20738;-69
2023/06/29 13:44:13;;;;;;;3.67;2.65;;;;;;;26.96;34.65;99584.19;10512175;28;20247;-67
2023/06/29 13:49:15;;;;;;;2.72;2.47;;;;;;;25.64;36.95;99550.00;10521598;28;20248;-67
2023/06/29 13:54:17;;;;;;;3.20;2.42;;;;;;;26.08;36.27;99565.41;10521084;28;20257;-67
2023/06/29 13:59:19;;;;;;;3.35;2.67;;;;;;;27.27;36.27;99559.78;10516297;28;20207;-67
2023/06/29 14:04:21;;;;;;;3.67;2.38;;;;;;;25.94;36.97;99554.34;10509148;28;20238;-68
2023/06/29 14:09:25;;;;;;;4.18;2.40;;;;;;;27.55;34.84;99523.25;10519698;28;20642;-67
2023/06/29 14:14:27;;;;;;;4.82;2.75;;;;;;;26.98;35.48;99539.97;10517271;28;20238;-69
2023/06/29 14:19:53;;;;;;;2.80;2.17;;;;;;;27.65;35.13;99512.91;10514419;28;20195;-68
2023/06/29 14:24:55;;;;;;;3.17;2.40;;;;;;;26.81;35.39;99565.25;10511934;28;20339;-67
2023/06/29 14:29:56;;;;;;;4.57;2.17;;;;;;;27.26;34.91;99538.09;10513801;28;20329;-68
2023/06/29 14:34:58;;;;;;;3.08;2.30;;;;;;;28.21;34.00;99545.88;10516421;28;20218;-67
2023/06/29 14:40:02;;;;;;;2.75;2.53;;;;;;;27.07;35.09;99569.16;10517282;28;20215;-67
2023/06/29 14:45:04;;;;;;;2.78;2.08;;;;;;;27.80;34.75;99542.03;10512592;28;20742;-67
2023/06/29 14:50:06;;;;;;;3.92;2.70;;;;;;;27.79;34.38;99506.59;10520603;28;20264;-67
2023/06/29 14:55:08;;;;;;;2.55;2.20;;;;;;;26.16;35.45;99542.78;10514500;28;20318;-64
2023/06/29 15:00:10;;;;;;;3.40;2.42;;;;;;;25.81;35.98;99506.56;10517441;28;20741;-65
2023/06/29 15:05:12;;;;;;;3.75;2.75;;;;;;;27.91;34.38;99484.88;10515216;28;20691;-67
2023/06/29 15:10:14;;;;;;;3.22;2.35;;;;;;;27.66;33.62;99533.75;10517802;28;20290;-66
2023/06/29 15:15:16;;;;;;;3.03;2.53;;;;;;;28.75;33.83;99488.19;10514599;28;20666;-66
2023/06/29 15:20:18;;;;;;;5.10;2.90;;;;;;;26.84;35.17;99516.03;10511601;28;20688;-65
2023/06/29 15:25:19;;;;;;;4.25;2.45;;;;;;;26.98;34.70;99516.06;10513703;28;20227;-65
2023/06/29 15:30:21;;;;;;;3.75;2.63;;;;;;;26.87;35.24;99500.88;10516137;28;20237;-64
2023/06/29 15:35:23;;;;;;;3.55;2.70;;;;;;;27.01;35.22;99477.03;10508506;28;20309;-66
2023/06/29 15:40:25;;;;;;;5.07;2.60;;;;;;;27.35;34.50;99499.78;10519189;28;20734;-66
2023/06/29 15:45:27;;;;;;;5.57;2.88;;;;;;;28.49;34.08;99461.28;10513354;28;20701;-65
2023/06/29 15:50:29;;;;;;;4.72;3.30;;;;;;;27.14;34.76;99486.38;10521565;28;20732;-65
2023/06/29 15:55:31;;;;;;;4.85;3.10;;;;;;;28.06;33.60;99467.25;10523504;28;20222;-65
2023/06/29 16:00:33;;;;;;;4.05;2.78;;;;;;;27.30;34.35;99493.25;10519279;28;20229;-65
2023/06/29 16:05:35;;;;;;;5.30;3.03;;;;;;;27.27;35.25;99452.66;10518372;28;20234;-64
2023/06/29 16:10:36;;;;;;;4.55;2.92;;;;;;;27.71;34.48;99460.59;10527186;28;20227;-65
2023/06/29 16:15:38;;;;;;;5.05;2.80;;;;;;;27.92;34.33;99448.03;10522989;28;20321;-65
2023/06/29 16:20:40;;;;;;;5.55;3.42;;;;;;;28.12;34.21;99446.75;10518679;28;20369;-65
2023/06/29 16:25:41;;;;;;;3.95;3.13;;;;;;;27.51;34.52;99446.13;10522208;28;20235;-65
2023/06/29 16:30:44;;;;;;;4.38;2.97;;;;;;;28.27;33.33;99455.78;10521472;28;20203;-66
2023/06/29 16:35:46;;;;;;;3.92;2.97;;;;;;;28.79;33.70;99447.88;10517876;28;20317;-65
2023/06/29 16:40:48;;;;;;;4.43;3.17;;;;;;;26.54;35.49;99457.78;10523872;28;20221;-65
2023/06/29 16:45:50;;;;;;;6.45;3.22;;;;;;;27.10;34.85;99468.91;10518774;28;20320;-65
2023/06/29 16:50:51;;;;;;;5.95;3.30;;;;;;;26.86;34.83;99463.59;10519509;28;20297;-66
2023/06/29 16:55:53;;;;;;;4.07;3.10;;;;;;;27.97;34.00;99441.59;10519262;28;20249;-65
2023/06/29 17:00:57;;;;;;;4.57;3.30;;;;;;;26.87;35.46;99440.50;10519462;28;20818;-65
2023/06/29 17:05:59;;;;;;;6.30;3.50;;;;;;;28.44;34.45;99419.31;10515910;28;20313;-65
2023/06/29 17:11:00;;;;;;;4.38;3.10;;;;;;;28.67;33.42;99434.69;10518546;28;20234;-64
2023/06/29 17:16:03;;;;;;;6.20;3.58;;;;;;;28.74;33.77;99446.06;10518533;28;20222;-65
2023/06/29 17:21:05;;;;;;;4.93;3.10;;;;;;;28.07;34.11;99484.53;10516593;28;20214;-65
2023/06/29 17:26:09;;;;;;;4.60;3.10;;;;;;;28.89;33.48;99436.59;10520264;28;20237;-65
2023/06/29 17:31:10;;;;;;;4.45;2.83;;;;;;;28.52;34.06;99454.34;10517437;28;20730;-65
2023/06/29 17:36:12;;;;;;;5.03;3.28;;;;;;;29.17;33.21;99443.84;10518692;28;20262;-65
2023/06/29 17:41:14;;;;;;;5.38;3.30;;;;;;;29.15;33.39;99442.25;10518411;28;20307;-65
2023/06/29 17:46:15;;;;;;;7.00;3.55;;;;;;;28.99;33.52;99449.28;10521150;28;20242;-66
2023/06/29 17:51:18;;;;;;;4.03;2.97;;;;;;;29.37;33.67;99447.97;10520225;28;20235;-65
2023/06/29 17:56:20;;;;;;;4.05;2.92;;;;;;;28.43;34.59;99462.53;10512921;28;20279;-66
2023/06/29 18:01:22;;;;;;;6.25;3.20;;;;;;;27.85;34.79;99481.44;10496855;28;20264;-65
2023/06/29 18:06:24;;;;;;;5.03;3.28;;;;;;;28.02;34.74;99452.47;10522661;28;20588;-65
2023/06/29 18:11:27;;;;;;;15.13;3.60;;;;;;;27.63;35.16;99462.94;10520045;28;20199;-66
2023/06/29 18:16:29;;;;;;;4.28;3.10;;;;;;;27.82;35.24;99457.31;10523284;28;20268;-65
2023/06/29 18:21:31;;;;;;;6.32;3.58;;;;;;;29.15;34.80;99433.97;10518069;28;20595;-65
2023/06/29 18:26:33;;;;;;;5.97;3.65;;;;;;;29.52;34.79;99434.56;10518286;28;20767;-66
2023/06/29 18:31:36;;;;;;;6.05;3.63;;;;;;;29.21;35.41;99429.13;10510747;28;20207;-65
2023/06/29 18:36:38;;;;;;;4.57;3.28;;;;;;;29.17;35.02;99443.84;10513221;28;20231;-65
2023/06/29 18:41:40;;;;;;;5.85;4.10;;;;;;;29.55;34.45;99448.84;10515858;28;20348;-65
2023/06/29 18:47:05;;;;;;;6.45;3.67;;;;;;;29.80;34.31;99445.31;10515265;28;20313;-66
2023/06/29 18:52:07;;;;;;;5.03;3.55;;;;;;;29.58;34.04;99450.94;10507014;28;20203;-65
2023/06/29 18:57:10;;;;;;;4.43;3.20;;;;;;;29.36;35.49;99452.69;10518659;28;20230;-65
2023/06/29 19:02:12;;;;;;;4.90;3.17;;;;;;;28.12;37.09;99448.66;10496766;28;20329;-65
2023/06/29 19:07:16;;;;;;;6.30;3.88;;;;;;;28.78;36.16;99430.56;10519961;28;20235;-65
2023/06/29 19:12:18;;;;;;;4.88;3.35;;;;;;;27.35;37.71;99453.09;10511803;28;20203;-65
2023/06/29 19:17:20;;;;;;;5.53;3.53;;;;;;;28.03;37.06;99418.34;10516419;28;20249;-65
2023/06/29 19:22:21;;;;;;;6.88;3.60;;;;;;;28.26;35.95;99432.97;10518427;28;20229;-65
2023/06/29 19:27:25;;;;;;;9.40;4.05;;;;;;;27.32;36.12;99446.25;10517403;28;20230;-66
2023/06/29 19:32:27;;;;;;;5.63;3.28;;;;;;;26.99;36.22;99471.03;10525330;28;20225;-65
2023/06/29 19:37:29;;;;;;;3.65;3.28;;;;;;;27.79;35.67;99457.13;10528116;28;20211;-65
2023/06/29 19:42:31;;;;;;;5.82;3.40;;;;;;;26.89;36.54;99484.94;10525223;28;20654;-64
2023/06/29 19:47:33;;;;;;;5.80;3.20;;;;;;;26.34;37.31;99482.81;10528778;28;20669;-65
2023/06/29 19:52:34;;;;;;;5.82;3.60;;;;;;;27.67;35.89;99461.19;10527429;28;20206;-65
2023/06/29 19:57:37;;;;;;;4.22;3.05;;;;;;;27.16;36.37;99473.19;10526051;28;20245;-65
2023/06/29 20:02:39;;;;;;;4.50;3.55;;;;;;;27.13;36.79;99451.84;10523084;28;20239;-65
2023/06/29 20:07:41;;;;;;;5.03;3.40;;;;;;;27.24;36.54;99458.75;10524071;28;20248;-65
2023/06/29 20:12:46;;;;;;;5.97;3.40;;;;;;;27.38;36.76;99458.78;10514634;28;20330;-65
2023/06/29 20:17:47;;;;;;;4.93;3.67;;;;;;;26.89;37.25;99473.94;10523108;28;20230;-66
2023/06/29 20:22:50;;;;;;;6.70;3.50;;;;;;;26.45;37.56;99447.78;10522667;28;20237;-64
2023/06/29 20:27:53;;;;;;;5.00;3.33;;;;;;;25.93;37.88;99447.72;10519094;28;20298;-66
2023/06/29 20:32:55;;;;;;;4.70;3.67;;;;;;;27.55;36.44;99443.59;10515991;28;20234;-65
2023/06/29 20:37:57;;;;;;;5.93;3.92;;;;;;;27.42;36.40;99451.53;10525854;28;20301;-64
2023/06/29 20:42:59;;;;;;;4.70;3.47;;;;;;;24.90;38.95;99477.13;10523437;28;20785;-65
2023/06/29 20:48:01;;;;;;;5.72;3.58;;;;;;;24.48;39.96;99448.47;10518967;28;20230;-65
2023/06/29 20:53:03;;;;;;;5.60;3.58;;;;;;;25.05;38.92;99432.34;10521398;28;20232;-67
2023/06/29 20:58:04;;;;;;;6.15;3.92;;;;;;;24.28;40.54;99424.03;10515877;28;20235;-66
2023/06/29 21:03:07;;;;;;;4.05;3.30;;;;;;;23.90;41.16;99456.47;10523849;28;20238;-65
2023/06/29 21:08:09;;;;;;;8.52;3.75;;;;;;;24.79;39.76;99463.81;10519921;28;20217;-66
2023/06/29 21:13:11;;;;;;;5.93;3.92;;;;;;;26.26;38.45;99439.59;10518373;28;20231;-64
2023/06/29 21:18:13;;;;;;;6.35;4.20;;;;;;;25.88;38.86;99439.59;10518260;28;20624;-66
2023/06/29 21:23:15;;;;;;;5.50;3.85;;;;;;;26.70;37.53;99454.78;10520937;28;20725;-66
2023/06/29 21:28:17;;;;;;;5.45;3.70;;;;;;;24.32;41.42;99477.00;10523281;28;20235;-66
2023/06/29 21:33:20;;;;;;;7.40;3.53;;;;;;;24.44;41.71;99449.31;10516986;28;20230;-66
2023/06/29 21:38:23;;;;;;;4.63;3.45;;;;;;;23.95;42.50;99461.91;10520791;28;20635;-66
2023/06/29 21:43:32;;;;;;;4.60;3.60;;;;;;;24.61;41.52;99425.09;10518802;28;20231;-66
2023/06/29 21:48:35;;;;;;;5.53;4.13;;;;;;;22.68;44.13;99445.63;10517415;28;20211;-65
2023/06/29 21:53:37;;;;;;;8.25;4.57;;;;;;;23.24;43.01;99422.88;10523346;28;20900;-66
2023/06/29 21:58:39;;;;;;;6.22;4.07;;;;;;;25.45;40.00;99435.72;10518809;28;20300;-66
2023/06/29 22:03:41;;;;;;;6.72;3.90;;;;;;;23.20;43.45;99447.19;10510826;28;20242;-65
2023/06/29 22:08:42;;;;;;;6.65;4.35;;;;;;;23.33;43.38;99432.16;10518511;28;20269;-68
2023/06/29 22:13:44;;;;;;;5.05;4.10;;;;;;;23.18;43.64;99427.56;10517897;28;20229;-68
2023/06/29 22:18:53;;;;;;;5.75;4.43;;;;;;;23.48;42.81;99430.44;10516198;28;20211;-68
2023/06/29 22:23:55;;;;;;;5.53;4.07;;;;;;;23.29;42.89;99428.34;10516676;28;20262;-67
2023/06/29 22:28:57;;;;;;;6.25;4.13;;;;;;;23.56;42.95;99403.38;10520401;28;20198;-68
2023/06/29 22:33:59;;;;;;;5.32;4.22;;;;;;;23.74;42.18;99433.91;10516932;28;20223;-68
2023/06/29 22:39:01;;;;;;;5.55;4.25;;;;;;;22.26;44.59;99435.78;10503748;28;20213;-67
2023/06/29 22:44:03;;;;;;;5.60;4.25;;;;;;;22.21;44.95;99411.25;10513468;28;20231;-67
2023/06/29 22:49:04;;;;;;;5.53;4.07;;;;;;;23.59;42.50;99397.34;10510252;28;20203;-66
2023/06/29 22:54:08;;;;;;;5.13;3.63;;;;;;;26.03;38.95;99421.00;10517640;28;20288;-66
2023/06/29 22:59:11;;;;;;;5.82;4.07;;;;;;;23.33;43.35;99459.44;10520622;28;20373;-66
2023/06/29 23:04:13;;;;;;;5.45;4.35;;;;;;;23.48;42.51;99447.63;10508458;28;21034;-66
2023/06/29 23:09:15;;;;;;;5.60;3.95;;;;;;;23.95;41.75;99412.72;10517171;28;20199;-66
2023/06/29 23:14:17;;;;;;;5.63;4.03;;;;;;;23.30;43.72;99401.84;10519934;28;20330;-66
2023/06/29 23:19:21;;;;;;;6.85;4.28;;;;;;;22.09;45.69;99417.78;10519185;28;20199;-66
2023/06/29 23:24:22;;;;;;;5.50;4.20;;;;;;;22.20;45.70;99390.53;10514813;28;20444;-66
2023/06/29 23:29:24;;;;;;;5.82;4.75;;;;;;;22.34;45.04;99397.09;10518350;28;20723;-68
2023/06/29 23:34:26;;;;;;;6.28;4.55;;;;;;;21.91;45.51;99401.91;10517723;28;20223;-68